Time;durP1;ratioP1;P1;durP2;ratioP2;P2;SDS_P1;SDS_P2;PMS_P1;PMS_P2;Temp;Humidity;BMP_temperature;BMP_pressure;BME280_temperature;BME280_humidity;BME280_pressure;Samples;Min_cycle;Max_cycle;Signal;HPM_P1;HPM_P2
2023/09/02 00:00:17;;;;;;;0.93;0.70;;;;;;;20.09;61.45;99864.66;4471504;32;33596;-79
2023/09/02 00:02:46;;;;;;;1.42;0.90;;;;;;;19.92;61.93;99876.88;4475897;32;33720;-80
2023/09/02 00:05:15;;;;;;;2.47;1.10;;;;;;;19.92;61.98;99879.50;4476131;32;33999;-80
2023/09/02 00:07:44;;;;;;;0.77;0.77;;;;;;;19.75;62.53;99880.31;4464352;32;34609;-80
2023/09/02 00:10:13;;;;;;;1.65;0.98;;;;;;;19.86;62.06;99878.94;4476997;32;33078;-79
2023/09/02 00:12:42;;;;;;;1.02;0.90;;;;;;;19.93;61.85;99878.56;4464691;32;33740;-79
2023/09/02 00:15:12;;;;;;;1.25;1.00;;;;;;;19.95;61.96;99875.88;4469431;32;34017;-79
2023/09/02 00:17:41;;;;;;;1.58;1.00;;;;;;;19.71;62.76;99870.84;4471903;32;32947;-80
2023/09/02 00:20:11;;;;;;;0.70;0.70;;;;;;;19.72;62.94;99874.34;4473764;32;33929;-80
2023/09/02 00:22:40;;;;;;;1.83;1.00;;;;;;;19.88;62.54;99875.31;4462534;32;33135;-80
2023/09/02 00:25:09;;;;;;;1.55;0.90;;;;;;;19.81;62.50;99866.88;4466602;32;33711;-81
2023/09/02 00:27:40;;;;;;;1.75;1.00;;;;;;;19.62;63.25;99868.66;4473789;32;33405;-80
2023/09/02 00:30:12;;;;;;;1.48;0.75;;;;;;;19.73;62.88;99873.41;4467165;32;33967;-80
2023/09/02 00:32:40;;;;;;;2.20;1.30;;;;;;;19.71;62.95;99872.63;4470087;32;33458;-80
2023/09/02 00:35:10;;;;;;;1.92;1.00;;;;;;;19.97;62.16;99874.84;4466233;32;34525;-81
2023/09/02 00:37:39;;;;;;;1.58;1.00;;;;;;;19.91;62.25;99867.28;4461966;31;33318;-80
2023/09/02 00:40:10;;;;;;;0.80;0.80;;;;;;;19.64;63.03;99869.41;4475251;32;33878;-80
2023/09/02 00:42:39;;;;;;;1.85;1.20;;;;;;;19.49;63.50;99864.87;4470297;32;33755;-79
2023/09/02 00:45:09;;;;;;;1.40;0.90;;;;;;;19.55;63.23;99860.19;4475044;31;34741;-80
2023/09/02 00:47:39;;;;;;;0.73;0.73;;;;;;;19.58;63.10;99860.03;4461849;32;34123;-81
2023/09/02 00:50:09;;;;;;;1.85;0.93;;;;;;;19.45;63.83;99858.94;4461708;32;33422;-81
2023/09/02 00:52:37;;;;;;;1.85;0.82;;;;;;;19.64;62.69;99864.13;4463331;32;33582;-80
2023/09/02 00:55:06;;;;;;;2.75;1.08;;;;;;;19.77;62.32;99862.66;4472791;32;35179;-79
2023/09/02 00:57:36;;;;;;;1.37;0.70;;;;;;;19.74;62.59;99860.19;4459987;32;33308;-80
2023/09/02 01:00:06;;;;;;;1.85;0.80;;;;;;;19.58;63.25;99870.56;4470718;32;33322;-79
2023/09/02 01:02:35;;;;;;;1.50;0.98;;;;;;;19.45;63.61;99872.09;4467788;32;33829;-79
2023/09/02 01:05:06;;;;;;;1.85;0.77;;;;;;;19.40;63.69;99866.16;4480491;32;33575;-79
2023/09/02 01:07:35;;;;;;;1.15;0.88;;;;;;;19.44;63.50;99878.25;4467062;32;34451;-80
2023/09/02 01:10:05;;;;;;;0.80;0.80;;;;;;;19.59;63.07;99882.78;4473523;32;33641;-79
2023/09/02 01:12:34;;;;;;;1.12;0.90;;;;;;;19.55;63.26;99880.41;4469023;32;33323;-79
2023/09/02 01:15:04;;;;;;;0.70;0.70;;;;;;;19.54;63.55;99876.88;4464509;32;33683;-80
2023/09/02 01:17:35;;;;;;;1.55;1.10;;;;;;;19.44;63.86;99878.25;4473230;32;34220;-80
2023/09/02 01:20:06;;;;;;;1.10;0.75;;;;;;;19.41;64.09;99886.28;4470334;32;33712;-80
2023/09/02 01:23:10;;;;;;;1.08;0.82;;;;;;;19.65;63.30;99883.44;4469192;32;33511;-78
2023/09/02 01:26:01;;;;;;;1.73;1.17;;;;;;;19.57;63.37;99884.66;4464051;31;34300;-80
2023/09/02 01:28:33;;;;;;;1.33;0.90;;;;;;;19.53;63.60;99884.88;4472854;32;34229;-79
2023/09/02 01:31:01;;;;;;;;;;;;;;;19.41;64.02;99883.66;4479742;32;33190;-80
2023/09/02 01:33:30;;;;;;;1.40;1.00;;;;;;;19.53;63.35;99869.94;4478667;32;34295;-81
2023/09/02 01:36:03;;;;;;;1.42;1.00;;;;;;;19.53;63.34;99875.19;4460499;32;33743;-79
2023/09/02 01:38:32;;;;;;;1.73;1.20;;;;;;;19.45;63.60;99864.19;4465361;32;34861;-80
2023/09/02 01:41:04;;;;;;;0.88;0.80;;;;;;;19.50;63.68;99866.56;4462728;32;33341;-79
2023/09/02 01:43:35;;;;;;;1.45;0.80;;;;;;;19.39;63.98;99881.09;4474290;32;33368;-79
2023/09/02 01:46:03;;;;;;;0.95;0.82;;;;;;;19.48;63.64;99871.94;4465442;32;33942;-81
2023/09/02 01:48:33;;;;;;;0.77;0.77;;;;;;;19.54;63.41;99869.00;4461373;32;33894;-80
2023/09/02 01:51:02;;;;;;;1.08;0.70;;;;;;;19.46;63.53;99875.56;4468870;32;32832;-79
2023/09/02 01:53:31;;;;;;;0.73;0.73;;;;;;;19.38;63.63;99875.91;4469767;32;33460;-80
2023/09/02 01:56:01;;;;;;;1.17;0.93;;;;;;;19.25;64.24;99877.41;4482984;32;34416;-79
2023/09/02 01:58:30;;;;;;;0.75;0.75;;;;;;;19.31;63.92;99874.50;4470477;32;34374;-79
2023/09/02 02:01:00;;;;;;;0.80;0.70;;;;;;;19.29;63.91;99876.34;4477978;32;33819;-81
2023/09/02 02:03:39;;;;;;;0.82;0.77;;;;;;;19.27;64.23;99876.41;4477849;32;33777;-80
2023/09/02 02:06:09;;;;;;;0.95;0.85;;;;;;;19.21;64.50;99873.19;4483682;32;33935;-81
2023/09/02 02:08:44;;;;;;;1.30;0.77;;;;;;;19.17;64.39;99878.59;4478325;32;33916;-80
2023/09/02 02:11:14;;;;;;;1.95;0.98;;;;;;;19.22;64.23;99881.03;4464864;32;34076;-81
2023/09/02 02:13:44;;;;;;;0.95;0.80;;;;;;;19.09;64.50;99879.87;4466059;32;36070;-80
2023/09/02 02:16:14;;;;;;;1.10;0.90;;;;;;;19.00;64.92;99872.41;4463388;32;33921;-79
2023/09/02 02:18:43;;;;;;;1.87;1.08;;;;;;;19.06;64.59;99872.97;4468624;32;33085;-79
2023/09/02 02:21:12;;;;;;;1.67;1.08;;;;;;;19.17;64.47;99880.38;4467327;32;33118;-79
2023/09/02 02:23:41;;;;;;;1.20;0.90;;;;;;;19.23;64.31;99884.50;4461339;32;33837;-80
2023/09/02 02:26:10;;;;;;;2.55;1.35;;;;;;;19.24;64.30;99875.69;4464281;32;34602;-79
2023/09/02 02:28:43;;;;;;;1.10;0.75;;;;;;;19.21;64.40;99878.44;4483237;32;33734;-79
2023/09/02 02:31:11;;;;;;;1.40;0.90;;;;;;;19.19;64.48;99878.53;4475235;32;33367;-79
2023/09/02 02:33:42;;;;;;;1.50;0.90;;;;;;;19.13;64.74;99882.28;4472583;32;32761;-80
2023/09/02 02:36:10;;;;;;;1.77;1.05;;;;;;;19.21;64.46;99879.34;4478039;32;36065;-79
2023/09/02 02:38:39;;;;;;;0.55;0.55;;;;;;;19.01;65.00;99877.59;4477659;32;33867;-80
2023/09/02 02:41:08;;;;;;;1.20;0.88;;;;;;;18.98;65.18;99888.25;4483241;32;34119;-80
2023/09/02 02:43:37;;;;;;;1.67;0.95;;;;;;;19.06;65.20;99883.47;4469442;32;33386;-80
2023/09/02 02:46:06;;;;;;;1.02;0.80;;;;;;;19.10;65.01;99877.16;4474387;32;34015;-79
2023/09/02 02:48:35;;;;;;;1.50;1.05;;;;;;;19.03;65.39;99880.16;4476893;32;33940;-79
2023/09/02 02:51:05;;;;;;;1.10;0.95;;;;;;;18.89;65.60;99875.50;4483191;32;32703;-80
2023/09/02 02:53:36;;;;;;;1.70;1.00;;;;;;;19.07;65.02;99879.09;4477526;32;34510;-79
2023/09/02 02:56:05;;;;;;;2.45;1.27;;;;;;;18.73;66.09;99873.53;4477490;32;34514;-79
2023/09/02 02:58:34;;;;;;;1.33;0.93;;;;;;;19.00;65.19;99883.78;4480145;32;33585;-81
2023/09/02 03:01:04;;;;;;;1.15;1.05;;;;;;;19.01;65.12;99885.47;4480377;32;32901;-79
2023/09/02 03:03:35;;;;;;;2.55;1.10;;;;;;;19.16;64.74;99882.16;4483351;32;33119;-79
2023/09/02 03:06:06;;;;;;;2.12;1.10;;;;;;;19.07;64.90;99879.09;4477141;32;34772;-80
2023/09/02 03:08:36;;;;;;;1.77;0.93;;;;;;;19.09;65.04;99883.38;4477355;32;33392;-80
2023/09/02 03:11:06;;;;;;;2.15;1.40;;;;;;;18.99;65.48;99884.69;4477506;32;33842;-79
2023/09/02 03:13:35;;;;;;;1.85;1.10;;;;;;;18.86;66.08;99873.88;4483177;32;34353;-79
2023/09/02 03:16:06;;;;;;;1.65;0.93;;;;;;;18.79;66.33;99877.69;4477007;32;34560;-81
2023/09/02 03:18:35;;;;;;;1.08;0.95;;;;;;;18.85;66.20;99881.84;4477334;32;34054;-79
2023/09/02 03:21:06;;;;;;;2.28;1.17;;;;;;;18.95;66.01;99889.25;4463113;32;34220;-80
2023/09/02 03:23:36;;;;;;;0.77;0.77;;;;;;;18.90;66.37;99883.34;4463742;32;33671;-79
2023/09/02 03:26:08;;;;;;;2.28;0.98;;;;;;;18.94;66.02;99882.28;4465552;32;34416;-81
2023/09/02 03:28:37;;;;;;;0.70;0.70;;;;;;;19.13;65.42;99886.69;4467499;32;35200;-80
2023/09/02 03:31:07;;;;;;;1.15;0.90;;;;;;;19.10;65.48;99887.69;4476167;32;33943;-79
2023/09/02 03:33:36;;;;;;;0.90;0.82;;;;;;;19.12;65.91;99885.84;4477167;32;33675;-80
2023/09/02 03:36:07;;;;;;;1.75;1.10;;;;;;;19.21;65.23;99884.59;4482428;32;33762;-79
2023/09/02 03:38:36;;;;;;;2.27;1.13;;;;;;;18.95;66.30;99881.34;4477453;32;34123;-80
2023/09/02 03:41:10;;;;;;;1.10;1.00;;;;;;;19.16;65.34;99879.53;4476334;32;34010;-79
2023/09/02 03:43:40;;;;;;;1.15;0.90;;;;;;;19.07;65.83;99881.72;4477402;32;33605;-80
2023/09/02 03:46:08;;;;;;;2.95;1.20;;;;;;;19.01;65.70;99882.84;4465653;32;34908;-79
2023/09/02 03:48:37;;;;;;;1.10;0.75;;;;;;;19.05;65.54;99881.78;4467361;32;35013;-79
2023/09/02 03:51:12;;;;;;;1.55;1.15;;;;;;;18.87;65.79;99879.97;4461560;32;33457;-79
2023/09/02 03:53:41;;;;;;;1.80;1.12;;;;;;;19.03;65.22;99883.62;4461852;32;34543;-79
2023/09/02 03:56:11;;;;;;;2.00;1.23;;;;;;;19.09;65.05;99878.09;4461572;32;33637;-79
2023/09/02 03:58:40;;;;;;;1.40;0.98;;;;;;;18.88;65.69;99882.53;4482414;32;34131;-79
2023/09/02 04:01:11;;;;;;;1.85;1.20;;;;;;;19.04;65.23;99887.97;4477317;32;34213;-80
2023/09/02 04:03:41;;;;;;;2.45;1.40;;;;;;;18.84;65.98;99885.38;4476904;32;33540;-78
2023/09/02 04:06:12;;;;;;;1.17;1.02;;;;;;;19.14;65.22;99886.63;4476979;32;34220;-79
2023/09/02 04:08:41;;;;;;;1.55;1.15;;;;;;;19.11;65.36;99884.16;4476896;32;32818;-80
2023/09/02 04:11:09;;;;;;;1.30;1.02;;;;;;;19.02;65.37;99884.56;4482300;32;34957;-81
2023/09/02 04:13:38;;;;;;;3.15;1.08;;;;;;;19.17;64.99;99891.75;4473816;32;33760;-81
2023/09/02 04:16:09;;;;;;;2.00;1.30;;;;;;;19.18;64.97;99893.47;4460881;32;34044;-79
2023/09/02 04:18:38;;;;;;;1.67;1.58;;;;;;;19.06;65.57;99895.78;4462128;32;34870;-80
2023/09/02 04:21:09;;;;;;;1.67;1.15;;;;;;;19.10;65.75;99898.22;4472397;32;33320;-79
2023/09/02 04:23:41;;;;;;;2.08;1.33;;;;;;;19.08;66.03;99899.19;4461480;32;32946;-81
2023/09/02 04:26:10;;;;;;;1.73;1.15;;;;;;;19.09;65.90;99896.50;4461432;32;33748;-79
2023/09/02 04:28:39;;;;;;;1.42;0.90;;;;;;;19.02;66.01;99896.88;4459850;32;33556;-80
2023/09/02 04:31:08;;;;;;;1.35;0.82;;;;;;;19.18;65.22;99904.00;4465310;32;34163;-80
2023/09/02 04:33:37;;;;;;;1.55;1.20;;;;;;;19.07;65.68;99908.87;4477362;32;34182;-80
2023/09/02 04:36:06;;;;;;;1.15;0.90;;;;;;;19.33;64.73;99906.81;4477017;31;33623;-81
2023/09/02 04:38:35;;;;;;;1.65;1.00;;;;;;;19.23;65.22;99916.06;4461529;32;33671;-79
2023/09/02 04:41:06;;;;;;;2.08;1.12;;;;;;;19.07;65.97;99911.50;4461286;32;34372;-80
2023/09/02 04:43:35;;;;;;;1.25;1.00;;;;;;;19.17;65.58;99915.41;4467495;32;34187;-79
2023/09/02 04:46:07;;;;;;;1.17;0.98;;;;;;;19.29;64.86;99913.16;4473946;32;34330;-79
2023/09/02 04:48:36;;;;;;;2.25;1.40;;;;;;;19.31;64.96;99917.44;4467299;32;33593;-78
2023/09/02 04:51:07;;;;;;;1.65;1.12;;;;;;;19.08;66.54;99914.97;4467543;32;35593;-79
2023/09/02 04:53:36;;;;;;;2.20;1.30;;;;;;;19.16;66.33;99913.72;4464378;32;33960;-79
2023/09/02 04:56:08;;;;;;;1.15;1.00;;;;;;;19.09;66.57;99917.56;4475683;32;34479;-79
2023/09/02 04:58:36;;;;;;;;;;;;;;;19.13;66.58;99923.50;4464787;32;34085;-78
2023/09/02 05:01:10;;;;;;;1.15;1.00;;;;;;;19.33;65.67;99918.22;4466628;31;31841;-80
2023/09/02 05:03:39;;;;;;;1.08;0.85;;;;;;;19.55;64.94;99919.88;4476759;32;34632;-79
2023/09/02 05:06:10;;;;;;;1.35;0.98;;;;;;;19.44;65.29;99916.87;4477701;32;33959;-81
2023/09/02 05:08:39;;;;;;;4.97;1.15;;;;;;;19.49;65.52;99922.75;4476883;32;34443;-79
2023/09/02 05:11:10;;;;;;;2.72;1.70;;;;;;;19.69;64.97;99916.59;4478186;32;32910;-80
2023/09/02 05:13:40;;;;;;;2.03;1.25;;;;;;;19.56;65.73;99927.66;4475160;32;33517;-79
2023/09/02 05:16:09;;;;;;;1.98;1.00;;;;;;;19.81;65.47;99923.91;4465105;32;33921;-79
2023/09/02 05:18:39;;;;;;;2.22;1.37;;;;;;;19.83;65.71;99922.06;4469317;32;34347;-81
2023/09/02 05:21:07;;;;;;;2.00;1.40;;;;;;;19.74;66.40;99918.09;4466889;32;33927;-80
2023/09/02 05:23:36;;;;;;;1.27;1.00;;;;;;;19.74;66.82;99922.50;4466377;32;33966;-79
2023/09/02 05:26:05;;;;;;;1.48;1.00;;;;;;;20.00;66.16;99929.16;4465946;32;33588;-81
2023/09/02 05:28:35;;;;;;;1.83;1.37;;;;;;;20.22;65.64;99927.19;4480786;31;33905;-80
2023/09/02 05:31:04;;;;;;;3.05;1.33;;;;;;;20.38;65.82;99924.63;4471037;32;32584;-79
2023/09/02 05:33:33;;;;;;;2.00;1.15;;;;;;;20.64;65.11;99922.50;4474080;32;33608;-79
2023/09/02 05:36:02;;;;;;;4.62;1.62;;;;;;;20.94;63.32;99920.06;4476878;32;34471;-78
2023/09/02 05:38:31;;;;;;;2.80;1.50;;;;;;;21.77;60.78;99920.91;4481032;32;34300;-80
2023/09/02 05:40:59;;;;;;;2.83;1.65;;;;;;;22.19;57.90;99924.69;4478883;32;33381;-79
2023/09/02 05:43:29;;;;;;;2.92;1.95;;;;;;;21.40;60.70;99930.84;4469614;32;33480;-81
2023/09/02 05:46:01;;;;;;;2.90;1.70;;;;;;;21.42;60.71;99926.31;4471883;32;34891;-80
2023/09/02 05:48:30;;;;;;;2.00;1.60;;;;;;;21.16;61.83;99922.41;4476382;32;33793;-79
2023/09/02 05:50:59;;;;;;;3.05;1.77;;;;;;;20.81;63.44;99932.19;4481652;32;33081;-79
2023/09/02 05:53:29;;;;;;;4.32;2.28;;;;;;;20.54;64.45;99919.47;4475918;32;35086;-80
2023/09/02 05:55:58;;;;;;;2.58;1.60;;;;;;;20.40;64.40;99922.78;4475044;32;34589;-79
2023/09/02 05:58:27;;;;;;;3.03;1.52;;;;;;;20.75;63.50;99922.78;4476576;32;34303;-80
2023/09/02 06:00:58;;;;;;;3.40;1.83;;;;;;;20.86;63.98;99920.47;4481457;32;33311;-79
2023/09/02 06:03:29;;;;;;;3.45;1.67;;;;;;;20.60;64.49;99926.22;4475691;32;34495;-79
2023/09/02 06:05:58;;;;;;;4.00;2.60;;;;;;;20.76;64.16;99927.16;4475719;32;34537;-79
2023/09/02 06:08:27;;;;;;;4.15;1.73;;;;;;;20.54;64.79;99929.12;4478495;32;33897;-81
2023/09/02 06:10:57;;;;;;;2.83;1.60;;;;;;;20.88;63.51;99934.44;4475846;32;34139;-79
2023/09/02 06:13:26;;;;;;;2.75;1.75;;;;;;;20.70;64.30;99926.63;4477529;32;33094;-79
2023/09/02 06:15:59;;;;;;;3.00;1.73;;;;;;;20.53;65.12;99933.56;4475651;32;33759;-79
2023/09/02 06:18:29;;;;;;;3.72;2.00;;;;;;;20.89;62.92;99928.22;4476862;32;33625;-80
2023/09/02 06:20:58;;;;;;;3.42;2.12;;;;;;;20.56;64.81;99932.56;4474934;32;33755;-79
2023/09/02 06:23:27;;;;;;;3.28;1.83;;;;;;;20.86;64.07;99928.38;4478452;32;33710;-79
2023/09/02 06:25:56;;;;;;;3.37;1.98;;;;;;;21.01;63.81;99931.16;4463906;32;34695;-79
2023/09/02 06:28:25;;;;;;;3.30;1.80;;;;;;;21.49;62.36;99935.62;4467266;32;33959;-81
2023/09/02 06:30:55;;;;;;;3.10;1.87;;;;;;;21.13;63.51;99942.84;4466556;32;34181;-81
2023/09/02 06:33:24;;;;;;;2.45;1.62;;;;;;;21.23;63.10;99944.91;4466869;32;33362;-81
2023/09/02 06:35:55;;;;;;;2.50;1.62;;;;;;;21.46;62.29;99945.50;4472676;32;33536;-81
2023/09/02 06:38:23;;;;;;;3.83;1.75;;;;;;;21.76;61.23;99948.25;4468285;32;35356;-80
2023/09/02 06:40:52;;;;;;;3.08;1.45;;;;;;;21.62;62.48;99950.78;4468946;32;33496;-80
2023/09/02 06:43:21;;;;;;;4.10;2.00;;;;;;;21.49;62.84;99951.47;4472994;31;34725;-81
2023/09/02 06:45:50;;;;;;;2.08;1.45;;;;;;;22.05;60.44;99951.88;4468898;32;34469;-80
2023/09/02 06:48:18;;;;;;;3.95;1.80;;;;;;;21.70;62.22;99961.78;4468874;32;34424;-80
2023/09/02 06:50:47;;;;;;;2.00;1.55;;;;;;;21.90;60.80;99958.03;4468256;32;32942;-79
2023/09/02 06:53:18;;;;;;;2.35;1.60;;;;;;;21.95;60.82;99950.72;4470617;32;34037;-80
2023/09/02 06:55:47;;;;;;;3.70;1.90;;;;;;;22.14;60.55;99956.66;4481293;32;32646;-81
2023/09/02 06:58:16;;;;;;;2.65;1.40;;;;;;;22.16;61.32;99960.06;4483267;32;33518;-80
2023/09/02 07:00:45;;;;;;;3.80;1.73;;;;;;;22.35;60.61;99953.78;4477570;32;32920;-79
2023/09/02 07:03:17;;;;;;;2.50;1.48;;;;;;;22.68;59.29;99958.84;4475754;32;32860;-80
2023/09/02 07:05:46;;;;;;;3.45;1.45;;;;;;;22.67;59.77;99956.31;4462140;32;33812;-79
2023/09/02 07:08:16;;;;;;;2.95;1.77;;;;;;;22.45;60.69;99954.94;4477767;32;34018;-79
2023/09/02 07:10:46;;;;;;;2.37;1.33;;;;;;;22.60;60.66;99957.63;4467751;32;32027;-80
2023/09/02 07:13:15;;;;;;;4.37;1.80;;;;;;;22.76;59.55;99961.03;4463036;32;32847;-81
2023/09/02 07:15:45;;;;;;;3.10;1.50;;;;;;;22.96;58.12;99955.44;4462711;32;34494;-81
2023/09/02 07:18:13;;;;;;;2.83;1.50;;;;;;;23.14;58.38;99961.41;4467754;32;33987;-80
2023/09/02 07:20:42;;;;;;;2.33;1.27;;;;;;;22.90;59.63;99963.72;4475067;32;33195;-79
2023/09/02 07:23:11;;;;;;;2.47;1.60;;;;;;;22.83;59.38;99962.37;4477319;32;33440;-81
2023/09/02 07:25:40;;;;;;;3.15;1.87;;;;;;;23.02;59.01;99969.25;4476789;32;33211;-79
2023/09/02 07:28:10;;;;;;;5.37;1.73;;;;;;;23.44;57.50;99968.44;4468947;32;34142;-79
2023/09/02 07:30:39;;;;;;;2.03;1.40;;;;;;;23.50;57.14;99965.38;4474500;32;32695;-81
2023/09/02 07:33:08;;;;;;;6.10;1.95;;;;;;;23.34;58.68;99975.22;4460620;32;33869;-80
2023/09/02 07:35:38;;;;;;;2.92;1.35;;;;;;;23.37;58.09;99964.47;4467238;32;33967;-80
2023/09/02 07:38:07;;;;;;;2.80;1.30;;;;;;;23.38;57.03;99966.16;4466314;32;33346;-80
2023/09/02 07:40:36;;;;;;;1.75;1.20;;;;;;;23.49;57.33;99969.00;4472892;32;33816;-79
2023/09/02 07:43:05;;;;;;;1.77;1.08;;;;;;;23.55;57.42;99970.41;4461942;32;34744;-80
2023/09/02 07:45:35;;;;;;;1.45;0.90;;;;;;;23.86;57.01;99961.41;4470686;32;34631;-81
2023/09/02 07:48:04;;;;;;;1.95;1.25;;;;;;;24.14;54.62;99967.56;4471956;32;33370;-80
2023/09/02 07:50:33;;;;;;;1.35;0.85;;;;;;;24.12;54.92;99969.47;4466909;32;33454;-80
2023/09/02 07:53:02;;;;;;;0.90;0.70;;;;;;;24.18;54.41;99972.56;4474249;32;33550;-79
2023/09/02 07:55:31;;;;;;;2.28;1.08;;;;;;;24.36;54.39;99977.63;4469566;32;33645;-80
2023/09/02 07:58:01;;;;;;;1.70;1.00;;;;;;;24.59;53.46;99978.78;4471304;32;33353;-80
2023/09/02 08:00:30;;;;;;;1.53;0.80;;;;;;;24.72;54.20;99979.66;4475937;32;32834;-80
2023/09/02 08:03:01;;;;;;;1.23;0.88;;;;;;;24.79;52.35;99972.97;4469625;32;33651;-81
2023/09/02 08:05:30;;;;;;;4.80;1.02;;;;;;;24.90;49.84;99970.44;4467877;32;34070;-81
2023/09/02 08:07:59;;;;;;;0.90;0.68;;;;;;;25.05;49.63;99979.13;4460977;32;33446;-79
2023/09/02 08:10:28;;;;;;;0.70;0.52;;;;;;;25.09;50.04;99974.47;4462703;32;33390;-81
2023/09/02 08:12:57;;;;;;;1.90;0.93;;;;;;;25.11;49.10;99977.87;4470922;32;34442;-80
2023/09/02 08:15:25;;;;;;;1.87;0.93;;;;;;;25.16;49.56;99980.22;4470351;32;33998;-80
2023/09/02 08:17:54;;;;;;;0.62;0.50;;;;;;;25.06;49.79;99975.53;4461198;32;35344;-80
2023/09/02 08:20:26;;;;;;;0.90;0.77;;;;;;;25.26;48.80;99976.00;4464538;32;33605;-80
2023/09/02 08:22:55;;;;;;;1.75;0.90;;;;;;;25.24;49.91;99976.09;4461302;32;33521;-80
2023/09/02 08:25:23;;;;;;;0.70;0.60;;;;;;;25.48;49.67;99988.63;4476857;32;34081;-80
2023/09/02 08:27:52;;;;;;;1.23;0.80;;;;;;;25.49;49.20;99979.69;4461284;32;34091;-80
2023/09/02 08:30:21;;;;;;;1.45;0.95;;;;;;;25.73;48.86;99985.06;4471556;32;34321;-79
2023/09/02 08:32:51;;;;;;;0.90;0.60;;;;;;;25.82;49.75;99980.91;4463249;32;33896;-79
2023/09/02 08:35:20;;;;;;;0.98;0.70;;;;;;;25.69;49.66;99989.75;4477127;32;33550;-79
2023/09/02 08:37:54;;;;;;;2.22;1.58;;;;;;;25.79;48.87;99984.63;4468154;32;34370;-79
2023/09/02 08:40:23;;;;;;;0.60;0.60;;;;;;;25.77;48.84;99983.88;4467945;32;33960;-79
2023/09/02 08:42:52;;;;;;;1.45;0.70;;;;;;;25.83;49.04;99988.78;4464890;32;34534;-79
2023/09/02 08:45:23;;;;;;;1.80;1.00;;;;;;;25.81;49.04;99980.06;4465986;32;34089;-80
2023/09/02 08:47:55;;;;;;;1.80;0.85;;;;;;;26.05;48.56;99990.75;4474837;32;33789;-80
2023/09/02 08:50:25;;;;;;;2.17;1.08;;;;;;;26.17;49.02;99986.34;4462245;32;33495;-79
2023/09/02 08:52:56;;;;;;;1.70;0.70;;;;;;;26.21;48.99;99985.16;4460431;32;33131;-81
2023/09/02 08:55:27;;;;;;;2.08;1.20;;;;;;;26.33;49.06;99992.22;4460531;32;33301;-81
2023/09/02 08:57:57;;;;;;;2.47;1.15;;;;;;;26.34;47.94;99993.09;4470512;32;33424;-79
2023/09/02 09:00:26;;;;;;;1.15;0.60;;;;;;;26.44;48.77;99990.59;4464395;32;33219;-81
2023/09/02 09:02:54;;;;;;;1.12;0.60;;;;;;;26.42;49.11;99989.84;4466780;32;34479;-79
2023/09/02 09:05:24;;;;;;;1.45;0.75;;;;;;;26.68;48.16;99993.25;4463424;32;33979;-80
2023/09/02 09:07:55;;;;;;;1.50;0.93;;;;;;;26.76;47.58;99986.37;4460915;32;34462;-79
2023/09/02 09:10:24;;;;;;;0.93;0.70;;;;;;;26.77;47.29;99997.84;4475263;32;33719;-79
2023/09/02 09:12:54;;;;;;;1.62;0.93;;;;;;;26.81;47.03;99986.88;4466864;32;34109;-80
2023/09/02 09:15:23;;;;;;;0.60;0.60;;;;;;;26.86;47.64;99988.34;4462300;32;33732;-80
2023/09/02 09:17:52;;;;;;;1.75;0.90;;;;;;;26.79;47.18;99988.78;4462351;32;34493;-80
2023/09/02 09:20:21;;;;;;;1.02;0.60;;;;;;;26.89;47.92;99980.94;4463700;32;30967;-79
2023/09/02 09:22:52;;;;;;;1.15;0.93;;;;;;;26.99;47.71;99986.41;4466782;32;33506;-80
2023/09/02 09:25:22;;;;;;;1.05;0.70;;;;;;;27.17;46.49;99990.31;4473886;32;33593;-79
2023/09/02 09:28:07;;;;;;;2.17;0.85;;;;;;;27.30;47.54;99992.91;4464339;32;35310;-80
2023/09/02 09:30:36;;;;;;;1.23;0.80;;;;;;;26.99;46.57;99987.28;4467643;32;33324;-80
2023/09/02 09:33:08;;;;;;;0.80;0.70;;;;;;;27.22;47.78;99990.84;4481297;32;33376;-79
2023/09/02 09:35:37;;;;;;;0.50;0.40;;;;;;;27.50;46.04;99983.38;4476421;32;34601;-80
2023/09/02 09:38:06;;;;;;;1.62;0.70;;;;;;;27.63;45.84;99991.22;4476873;32;33741;-80
2023/09/02 09:40:38;;;;;;;1.12;0.60;;;;;;;27.62;45.59;99990.38;4467688;32;33301;-79
2023/09/02 09:43:16;;;;;;;1.40;0.65;;;;;;;27.81;45.37;99991.56;4468472;32;33899;-81
2023/09/02 09:45:53;;;;;;;1.30;0.82;;;;;;;27.77;45.27;99990.12;4470659;32;33949;-80
2023/09/02 09:48:22;;;;;;;1.42;0.70;;;;;;;27.89;44.84;99996.34;4464544;32;33713;-80
2023/09/02 09:50:50;;;;;;;0.68;0.50;;;;;;;27.78;44.52;99992.66;4469054;32;33460;-80
2023/09/02 09:53:19;;;;;;;1.80;1.05;;;;;;;27.98;43.49;99990.22;4468116;32;33822;-80
2023/09/02 09:55:51;;;;;;;0.65;0.62;;;;;;;27.81;45.52;99988.88;4473796;32;33573;-79
2023/09/02 09:58:22;;;;;;;;;;;;;;;28.01;44.03;99990.84;4477546;32;34398;-80
2023/09/02 10:00:52;;;;;;;0.80;0.62;;;;;;;28.30;43.00;99987.59;4460319;32;33823;-79
2023/09/02 10:03:30;;;;;;;0.40;0.40;;;;;;;28.22;43.32;99990.03;4471078;32;33808;-80
2023/09/02 10:05:58;;;;;;;1.23;0.43;;;;;;;28.26;43.97;99983.50;4469656;32;33741;-80
2023/09/02 10:08:27;;;;;;;0.52;0.43;;;;;;;28.25;43.39;99984.47;4469861;32;33700;-79
2023/09/02 10:10:57;;;;;;;0.60;0.50;;;;;;;28.41;43.21;99992.87;4464352;32;33149;-79
2023/09/02 10:13:28;;;;;;;0.88;0.65;;;;;;;28.50;42.83;99988.66;4463108;32;33329;-79
2023/09/02 10:15:57;;;;;;;1.55;0.75;;;;;;;28.56;42.36;99982.81;4461875;32;33996;-79
2023/09/02 10:18:28;;;;;;;0.73;0.30;;;;;;;28.69;43.04;99983.47;4466638;32;33467;-78
2023/09/02 10:20:57;;;;;;;0.73;0.52;;;;;;;28.69;41.69;99982.62;4466870;32;33036;-77
2023/09/02 10:23:27;;;;;;;1.52;0.80;;;;;;;28.70;41.62;99984.28;4469715;32;33097;-78
2023/09/02 10:26:03;;;;;;;0.50;0.50;;;;;;;28.94;41.43;99984.88;4467805;32;33094;-77
2023/09/02 10:28:38;;;;;;;0.75;0.40;;;;;;;28.99;41.50;99981.81;4467301;32;34615;-78
2023/09/02 10:31:12;;;;;;;0.90;0.40;;;;;;;29.13;41.14;99983.34;4476057;32;33821;-78
2023/09/02 10:33:46;;;;;;;0.30;0.30;;;;;;;29.19;41.40;99971.28;4472409;32;34469;-78
2023/09/02 10:36:18;;;;;;;0.47;0.37;;;;;;;29.17;40.32;99976.75;4460785;32;33618;-78
2023/09/02 10:38:49;;;;;;;0.98;0.62;;;;;;;29.17;41.46;99982.12;4468464;32;33474;-78
2023/09/02 10:41:19;;;;;;;0.47;0.40;;;;;;;29.31;40.99;99973.75;4474217;32;34133;-78
2023/09/02 10:43:48;;;;;;;1.23;0.88;;;;;;;29.42;40.81;99969.28;4476490;32;33711;-78
2023/09/02 10:46:17;;;;;;;0.75;0.50;;;;;;;29.54;41.48;99978.87;4464792;32;33547;-78
2023/09/02 10:48:48;;;;;;;1.40;0.60;;;;;;;29.59;40.34;99973.97;4474570;32;34234;-78
2023/09/02 10:51:17;;;;;;;1.58;1.00;;;;;;;29.51;40.16;99973.81;4471354;32;33509;-77
2023/09/02 10:54:00;;;;;;;0.30;0.30;;;;;;;29.73;39.91;99970.13;4476891;32;33866;-77
2023/09/02 10:56:31;;;;;;;0.68;0.57;;;;;;;29.49;38.82;99973.09;4467567;32;33815;-78
2023/09/02 10:59:01;;;;;;;0.80;0.50;;;;;;;29.37;40.68;99963.50;4474626;32;33130;-78
2023/09/02 11:01:47;;;;;;;0.40;0.40;;;;;;;29.51;38.94;99968.47;4468474;32;33824;-79
2023/09/02 11:04:36;;;;;;;1.05;0.43;;;;;;;29.57;39.58;99970.59;4460955;32;33699;-78
2023/09/02 11:07:28;;;;;;;0.40;0.30;;;;;;;29.61;39.47;99966.69;4473666;32;33533;-78
2023/09/02 11:09:58;;;;;;;1.75;0.43;;;;;;;29.74;40.27;99971.81;4467786;32;34199;-78
2023/09/02 11:12:27;;;;;;;1.00;0.60;;;;;;;29.65;38.79;99970.78;4478253;32;33363;-78
2023/09/02 11:15:15;;;;;;;0.25;0.25;;;;;;;29.66;39.00;99977.84;4460999;32;33136;-77
2023/09/02 11:17:44;;;;;;;3.83;0.60;;;;;;;29.51;38.60;99971.16;4469977;32;32333;-78
2023/09/02 11:20:14;;;;;;;0.80;0.60;;;;;;;29.48;39.16;99982.09;4472293;32;33518;-79
2023/09/02 11:22:55;;;;;;;0.45;0.40;;;;;;;29.84;38.68;99982.53;4469818;32;33157;-78
2023/09/02 11:25:37;;;;;;;1.20;0.70;;;;;;;30.04;38.93;99976.25;4467178;32;33577;-78
2023/09/02 11:28:08;;;;;;;1.40;0.88;;;;;;;30.16;37.71;99975.12;4465310;32;33478;-78
2023/09/02 11:30:38;;;;;;;1.95;1.00;;;;;;;30.25;38.18;99981.50;4471902;32;33516;-78
2023/09/02 11:33:07;;;;;;;1.27;0.57;;;;;;;30.25;37.80;99981.50;4470466;32;33524;-79
2023/09/02 11:35:37;;;;;;;0.75;0.50;;;;;;;30.15;38.12;99972.59;4462529;32;33602;-78
2023/09/02 11:38:19;;;;;;;1.20;0.70;;;;;;;30.32;36.90;99971.91;4467663;32;34490;-78
2023/09/02 11:40:48;;;;;;;0.50;0.40;;;;;;;30.34;36.94;99977.13;4461826;32;33820;-78
2023/09/02 11:43:20;;;;;;;0.75;0.50;;;;;;;30.48;36.58;99975.88;4459293;32;33806;-78
2023/09/02 11:45:49;;;;;;;0.98;0.50;;;;;;;30.31;37.13;99970.25;4466164;32;33665;-79
2023/09/02 11:48:18;;;;;;;1.05;0.43;;;;;;;30.29;36.77;99977.56;4467240;32;34762;-78